Time;durP1;ratioP1;P1;durP2;ratioP2;P2;SDS_P1;SDS_P2;PMS_P1;PMS_P2;Temp;Humidity;BMP_temperature;BMP_pressure;BME280_temperature;BME280_humidity;BME280_pressure;Samples;Min_cycle;Max_cycle;Signal;HPM_P1;HPM_P2
2022/07/22 00:01:13;;;;;;;9.38;6.82;;;19.40;99.90;;;;;;4999034;28;20400;-35
2022/07/22 00:03:39;;;;;;;8.85;7.13;;;19.30;99.90;;;;;;4997974;28;20133;-35
2022/07/22 00:06:04;;;;;;;9.77;6.90;;;19.20;99.90;;;;;;5002729;28;20033;-39
2022/07/22 00:08:30;;;;;;;8.43;6.72;;;19.20;99.90;;;;;;5002621;28;20080;-37
2022/07/22 00:10:56;;;;;;;7.75;6.65;;;19.30;99.90;;;;;;5001243;28;20672;-37
2022/07/22 00:13:21;;;;;;;9.43;6.80;;;19.30;99.90;;;;;;4996703;28;20029;-39
2022/07/22 00:15:47;;;;;;;9.27;6.68;;;19.10;99.90;;;;;;5000455;28;20025;-37
2022/07/22 00:18:12;;;;;;;8.02;6.85;;;18.50;99.90;;;;;;5003262;28;20053;-39
2022/07/22 00:20:38;;;;;;;7.07;6.18;;;18.10;99.90;;;;;;5000710;28;20483;-39
2022/07/22 00:23:04;;;;;;;6.75;6.13;;;17.80;99.90;;;;;;5003920;28;20628;-39
2022/07/22 00:25:29;;;;;;;8.32;6.82;;;17.50;99.90;;;;;;5001563;28;20097;-37
2022/07/22 00:27:55;;;;;;;6.75;6.03;;;17.30;99.90;;;;;;5000637;28;20026;-39
2022/07/22 00:30:21;;;;;;;10.40;7.93;;;17.40;99.90;;;;;;5000411;28;20052;-39
2022/07/22 00:32:47;;;;;;;11.95;8.73;;;17.60;99.90;;;;;;5001353;28;20045;-39
2022/07/22 00:35:13;;;;;;;10.63;7.55;;;17.80;99.90;;;;;;5001078;28;20034;-39
2022/07/22 00:37:38;;;;;;;8.18;7.18;;;18.00;99.90;;;;;;5001751;28;20061;-39
2022/07/22 00:40:06;;;;;;;12.82;8.43;;;18.10;99.90;;;;;;5000566;28;20030;-38
2022/07/22 00:42:31;;;;;;;9.70;7.80;;;18.20;99.90;;;;;;5001658;28;20025;-38
2022/07/22 00:44:57;;;;;;;9.80;8.13;;;18.30;99.90;;;;;;4997281;28;20048;-36
2022/07/22 00:47:23;;;;;;;9.98;7.40;;;18.30;99.90;;;;;;5000777;28;20112;-37
2022/07/22 00:49:49;;;;;;;10.70;7.50;;;18.40;99.90;;;;;;5001321;28;20033;-38
2022/07/22 00:52:14;;;;;;;9.73;7.65;;;18.40;99.90;;;;;;5000565;28;20034;-39
2022/07/22 00:54:40;;;;;;;10.25;8.45;;;18.40;99.90;;;;;;4999855;28;20044;-39
2022/07/22 00:57:06;;;;;;;11.68;8.23;;;18.40;99.90;;;;;;5000293;28;20036;-36
2022/07/22 00:59:31;;;;;;;10.93;7.80;;;18.40;99.90;;;;;;4999670;28;21499;-38
2022/07/22 01:01:57;;;;;;;11.10;8.45;;;18.40;99.90;;;;;;5000506;28;20131;-39
2022/07/22 01:04:23;;;;;;;9.95;7.20;;;18.40;99.90;;;;;;4999868;28;20105;-39
2022/07/22 01:06:48;;;;;;;9.13;7.55;;;18.30;99.90;;;;;;5001917;28;20042;-36
2022/07/22 01:09:14;;;;;;;8.93;7.70;;;18.30;99.90;;;;;;4999629;28;20018;-39
2022/07/22 01:11:41;;;;;;;9.60;7.20;;;18.30;99.90;;;;;;4999234;28;20124;-37
2022/07/22 01:14:06;;;;;;;8.02;6.60;;;18.30;99.90;;;;;;4997727;28;20088;-40
2022/07/22 01:16:32;;;;;;;7.85;6.38;;;18.10;99.90;;;;;;4998545;28;20038;-40
2022/07/22 01:18:57;;;;;;;10.95;7.43;;;17.80;99.90;;;;;;5001059;28;20123;-38
2022/07/22 01:21:24;;;;;;;8.98;7.63;;;17.80;99.90;;;;;;4999158;28;20040;-37
2022/07/22 01:23:50;;;;;;;8.90;7.32;;;17.80;99.90;;;;;;4998595;28;20813;-38
2022/07/22 01:26:17;;;;;;;7.43;6.35;;;17.80;99.90;;;;;;5014395;28;20029;-36
2022/07/22 01:28:43;;;;;;;7.45;6.05;;;17.80;99.90;;;;;;4999859;28;20127;-39
2022/07/22 01:31:09;;;;;;;8.85;7.40;;;17.80;99.90;;;;;;4999946;28;20483;-37
2022/07/22 01:33:35;;;;;;;7.97;6.90;;;17.80;99.90;;;;;;5001819;28;20076;-37
2022/07/22 01:36:03;;;;;;;7.32;6.28;;;17.70;99.90;;;;;;4998564;28;20103;-38
2022/07/22 01:38:28;;;;;;;8.80;6.97;;;17.60;99.90;;;;;;5003523;28;20079;-40
2022/07/22 01:40:54;;;;;;;8.07;7.13;;;17.70;99.90;;;;;;5000198;28;20034;-39
2022/07/22 01:43:20;;;;;;;8.30;7.35;;;17.70;99.90;;;;;;5000205;28;20060;-38
2022/07/22 01:45:49;;;;;;;9.77;7.57;;;17.70;99.90;;;;;;4997683;28;20149;-39
2022/07/22 01:48:15;;;;;;;7.88;7.07;;;17.70;99.90;;;;;;5000957;28;21495;-37
2022/07/22 01:50:41;;;;;;;7.95;6.90;;;17.80;99.90;;;;;;5002583;28;20064;-39
2022/07/22 01:53:07;;;;;;;8.75;7.03;;;17.70;99.90;;;;;;5000003;28;20057;-36
2022/07/22 01:55:34;;;;;;;9.27;7.63;;;17.60;99.90;;;;;;4998252;28;20026;-38
2022/07/22 01:57:59;;;;;;;10.25;7.72;;;17.70;99.90;;;;;;5000345;28;20037;-39
2022/07/22 02:00:25;;;;;;;9.35;7.35;;;17.60;99.90;;;;;;4999269;28;20029;-39
2022/07/22 02:02:51;;;;;;;7.70;6.80;;;17.60;99.90;;;;;;4999766;28;20529;-37
2022/07/22 02:05:17;;;;;;;8.40;6.70;;;17.60;99.90;;;;;;4999808;28;20042;-39
2022/07/22 02:07:43;;;;;;;9.52;7.63;;;17.40;99.90;;;;;;5000643;28;20545;-39
2022/07/22 02:10:09;;;;;;;7.78;6.97;;;17.30;99.90;;;;;;4999472;28;20033;-39
2022/07/22 02:12:34;;;;;;;8.00;6.40;;;17.30;99.90;;;;;;4999122;28;20038;-39
2022/07/22 02:15:00;;;;;;;6.60;5.72;;;17.20;99.90;;;;;;4999561;28;20037;-39
2022/07/22 02:17:27;;;;;;;6.90;5.43;;;17.20;99.90;;;;;;4998958;28;20034;-40
2022/07/22 02:19:53;;;;;;;5.95;5.35;;;17.00;99.90;;;;;;4999119;28;20034;-36
2022/07/22 02:22:18;;;;;;;7.50;6.63;;;17.00;99.90;;;;;;4998685;28;20570;-39
2022/07/22 02:24:44;;;;;;;7.28;5.97;;;17.00;99.90;;;;;;4999453;28;20372;-39
2022/07/22 02:27:11;;;;;;;7.20;5.85;;;17.10;99.90;;;;;;5002727;28;20103;-37
2022/07/22 02:29:36;;;;;;;13.82;7.88;;;16.90;99.90;;;;;;5003666;28;20018;-39
2022/07/22 02:32:02;;;;;;;8.38;7.13;;;17.00;99.90;;;;;;5002983;28;20530;-36
2022/07/22 02:34:28;;;;;;;10.88;7.43;;;17.00;99.90;;;;;;5002188;28;20156;-38
2022/07/22 02:36:54;;;;;;;9.38;7.13;;;17.00;99.90;;;;;;5001093;28;20445;-38
2022/07/22 02:39:19;;;;;;;6.57;5.90;;;16.80;99.90;;;;;;5001608;28;20056;-38
2022/07/22 02:41:45;;;;;;;8.13;5.10;;;16.80;99.90;;;;;;5018724;28;21558;-36
2022/07/22 02:44:11;;;;;;;4.70;4.30;;;16.60;99.90;;;;;;5002688;28;20028;-38
2022/07/22 02:46:36;;;;;;;4.13;3.80;;;16.30;99.90;;;;;;5000989;28;20526;-38
2022/07/22 02:49:04;;;;;;;4.32;3.92;;;16.00;99.90;;;;;;5004126;28;20044;-38
2022/07/22 02:51:29;;;;;;;4.82;4.43;;;15.70;99.90;;;;;;5002238;28;20044;-39
2022/07/22 02:53:55;;;;;;;6.32;5.32;;;15.70;99.90;;;;;;5003960;28;20054;-38
2022/07/22 02:56:21;;;;;;;5.18;4.28;;;15.90;99.90;;;;;;5003045;28;20076;-38
2022/07/22 02:58:46;;;;;;;5.68;4.85;;;16.00;99.90;;;;;;5001775;28;20129;-38
2022/07/22 03:01:13;;;;;;;5.70;5.07;;;16.20;99.90;;;;;;5001694;28;20407;-39
2022/07/22 03:03:39;;;;;;;7.68;5.13;;;16.30;99.90;;;;;;5000311;28;20034;-39
2022/07/22 03:06:05;;;;;;;7.03;5.72;;;16.40;99.90;;;;;;5001719;28;20438;-36
2022/07/22 03:08:30;;;;;;;7.57;6.00;;;16.40;99.90;;;;;;5001191;28;20034;-38
2022/07/22 03:10:56;;;;;;;7.18;5.80;;;16.50;99.90;;;;;;5003476;28;20446;-39
2022/07/22 03:13:22;;;;;;;7.78;5.75;;;16.50;99.90;;;;;;5002822;28;20033;-39
2022/07/22 03:15:47;;;;;;;8.35;6.07;;;16.50;99.90;;;;;;5002546;28;20372;-36
2022/07/22 03:18:13;;;;;;;6.18;4.78;;;16.50;99.90;;;;;;5001454;28;20499;-38
2022/07/22 03:20:39;;;;;;;5.10;4.15;;;16.40;99.90;;;;;;5001718;28;20048;-39
2022/07/22 03:23:05;;;;;;;5.90;4.55;;;16.10;99.90;;;;;;5003532;28;20034;-37
2022/07/22 03:25:32;;;;;;;4.88;4.40;;;15.90;99.90;;;;;;5002761;28;20026;-38
2022/07/22 03:27:58;;;;;;;4.47;4.07;;;15.80;99.90;;;;;;5001935;28;20038;-36
2022/07/22 03:30:23;;;;;;;6.00;5.40;;;15.90;99.90;;;;;;5001264;28;20045;-37
2022/07/22 03:32:49;;;;;;;5.70;4.60;;;16.00;99.90;;;;;;5001703;28;20034;-37
2022/07/22 03:35:16;;;;;;;6.22;4.30;;;16.10;99.90;;;;;;5002004;28;20030;-39
2022/07/22 03:37:42;;;;;;;4.55;4.00;;;16.10;99.90;;;;;;5000466;28;20041;-35
2022/07/22 03:40:09;;;;;;;4.07;3.50;;;16.20;99.90;;;;;;5002764;28;20058;-39
2022/07/22 03:42:34;;;;;;;4.57;3.40;;;16.20;99.90;;;;;;5006899;28;20522;-38
2022/07/22 03:45:00;;;;;;;3.15;2.95;;;16.20;99.90;;;;;;5009140;28;20069;-39
2022/07/22 03:47:26;;;;;;;4.65;4.25;;;16.30;99.90;;;;;;5007200;28;20034;-38
2022/07/22 03:49:51;;;;;;;4.20;3.80;;;16.20;99.90;;;;;;5000323;28;20491;-38
2022/07/22 03:52:17;;;;;;;3.90;3.60;;;16.20;99.90;;;;;;5001415;28;20040;-38
2022/07/22 03:54:43;;;;;;;4.00;3.70;;;16.20;99.90;;;;;;5002721;28;20038;-38
2022/07/22 03:57:09;;;;;;;4.22;3.85;;;16.20;99.90;;;;;;5003660;28;20069;-37
2022/07/22 03:59:35;;;;;;;4.20;3.80;;;16.20;99.90;;;;;;5000715;28;20398;-38
2022/07/22 04:02:01;;;;;;;6.57;5.97;;;16.20;99.90;;;;;;5002080;28;20033;-39
2022/07/22 04:04:26;;;;;;;7.10;5.38;;;16.20;99.90;;;;;;5001367;28;20040;-36
2022/07/22 04:06:52;;;;;;;7.38;5.97;;;16.30;99.90;;;;;;5000641;28;20034;-38
2022/07/22 04:09:18;;;;;;;7.60;6.60;;;16.30;99.90;;;;;;5002935;28;20026;-39
2022/07/22 04:11:44;;;;;;;8.10;6.10;;;16.30;99.90;;;;;;5017083;28;20091;-38
2022/07/22 04:14:10;;;;;;;6.88;6.18;;;16.30;99.90;;;;;;5001392;28;20037;-39
2022/07/22 04:16:36;;;;;;;8.57;6.47;;;16.30;99.90;;;;;;5001466;28;20045;-37
2022/07/22 04:19:02;;;;;;;6.40;5.72;;;16.10;99.90;;;;;;4999183;28;20041;-39
2022/07/22 04:21:28;;;;;;;6.35;5.47;;;15.80;99.90;;;;;;5000328;28;20382;-39
2022/07/22 04:23:55;;;;;;;5.82;5.20;;;15.70;99.90;;;;;;5002842;28;20026;-37
2022/07/22 04:26:21;;;;;;;6.45;5.85;;;15.90;99.90;;;;;;5001531;28;20037;-38
2022/07/22 04:28:47;;;;;;;6.05;5.00;;;16.00;99.90;;;;;;4999184;28;20026;-39
2022/07/22 04:31:12;;;;;;;6.70;5.30;;;15.90;99.90;;;;;;5001121;28;20041;-39
2022/07/22 04:33:38;;;;;;;5.22;4.72;;;15.60;99.90;;;;;;4999859;28;20018;-38
2022/07/22 04:36:04;;;;;;;5.28;4.82;;;15.50;99.90;;;;;;5002009;28;20030;-37
2022/07/22 04:38:30;;;;;;;8.95;7.03;;;15.40;99.90;;;;;;5000454;28;20117;-39
2022/07/22 04:40:56;;;;;;;8.93;6.63;;;15.30;99.90;;;;;;5001418;28;20047;-39
2022/07/22 04:43:22;;;;;;;8.20;6.30;;;15.40;99.90;;;;;;5000876;28;20026;-38
2022/07/22 04:45:47;;;;;;;7.50;6.65;;;15.60;99.90;;;;;;5000618;28;20486;-39
2022/07/22 04:48:13;;;;;;;8.63;7.28;;;15.70;99.90;;;;;;4999592;28;20030;-39
2022/07/22 04:50:39;;;;;;;8.07;6.68;;;15.80;99.90;;;;;;5000868;28;20037;-36
2022/07/22 04:53:04;;;;;;;9.48;7.60;;;15.80;99.90;;;;;;5000150;28;20058;-39
2022/07/22 04:55:30;;;;;;;9.77;7.40;;;15.80;99.90;;;;;;5001200;28;20380;-38
2022/07/22 04:57:56;;;;;;;9.40;6.82;;;15.90;99.90;;;;;;4998990;28;20069;-39
2022/07/22 05:00:23;;;;;;;8.15;7.10;;;16.00;99.90;;;;;;5000324;28;20037;-39
2022/07/22 05:02:49;;;;;;;10.83;7.30;;;16.20;99.90;;;;;;4999918;28;20121;-39
2022/07/22 05:05:15;;;;;;;8.57;7.10;;;16.40;99.90;;;;;;5000432;28;20936;-39
2022/07/22 05:07:40;;;;;;;9.40;7.03;;;16.50;99.90;;;;;;5000191;28;20088;-37
2022/07/22 05:10:06;;;;;;;9.80;8.07;;;16.70;99.90;;;;;;5000672;28;20137;-36
2022/07/22 05:12:32;;;;;;;10.88;7.72;;;16.80;99.90;;;;;;5000947;28;20033;-38
2022/07/22 05:14:58;;;;;;;11.05;8.63;;;17.00;99.90;;;;;;4999098;28;20034;-36
2022/07/22 05:17:23;;;;;;;9.90;8.05;;;17.10;99.90;;;;;;4999216;28;20470;-39
2022/07/22 05:19:49;;;;;;;13.25;8.48;;;17.20;99.90;;;;;;4998634;28;20575;-36
2022/07/22 05:22:15;;;;;;;9.40;7.47;;;17.30;99.90;;;;;;5001585;28;20080;-38
2022/07/22 05:24:40;;;;;;;11.30;8.52;;;17.50;99.90;;;;;;5000950;28;20041;-38
2022/07/22 05:27:06;;;;;;;10.30;8.18;;;17.60;99.90;;;;;;5001053;28;20058;-37
2022/07/22 05:29:31;;;;;;;12.07;9.27;;;17.70;99.90;;;;;;4999985;28;20484;-38
2022/07/22 05:31:57;;;;;;;13.88;9.93;;;17.70;99.90;;;;;;4998949;28;20040;-36
2022/07/22 05:34:23;;;;;;;13.40;9.32;;;17.90;99.90;;;;;;4999169;28;20890;-39
2022/07/22 05:36:48;;;;;;;12.27;9.93;;;17.90;99.90;;;;;;4998131;28;20040;-38
2022/07/22 05:39:14;;;;;;;11.88;9.20;;;18.00;99.90;;;;;;4998773;28;20040;-39
2022/07/22 05:41:40;;;;;;;15.55;10.02;;;18.00;99.90;;;;;;5001405;28;20426;-40
2022/07/22 05:44:06;;;;;;;15.35;10.40;;;18.10;99.90;;;;;;5000257;28;20422;-39
2022/07/22 05:46:31;;;;;;;16.42;11.52;;;18.30;99.90;;;;;;5000515;28;20026;-39
2022/07/22 05:48:57;;;;;;;14.50;10.88;;;18.40;99.90;;;;;;4999399;28;20032;-37
2022/07/22 05:51:23;;;;;;;15.68;11.35;;;18.40;99.90;;;;;;5001417;28;20037;-39
2022/07/22 05:53:49;;;;;;;14.88;11.32;;;18.50;99.90;;;;;;5003622;28;20531;-38
2022/07/22 05:56:15;;;;;;;14.00;10.50;;;18.70;99.90;;;;;;5007624;28;20026;-39
2022/07/22 05:58:42;;;;;;;16.35;12.00;;;18.70;99.90;;;;;;4999353;28;20219;-39
2022/07/22 06:01:09;;;;;;;14.88;11.13;;;18.90;99.90;;;;;;5008268;28;20491;-38
2022/07/22 06:03:34;;;;;;;17.90;11.57;;;19.10;99.90;;;;;;5008476;28;20145;-38
2022/07/22 06:06:02;;;;;;;17.45;12.55;;;19.20;99.90;;;;;;5004685;28;20815;-39
2022/07/22 06:08:28;;;;;;;15.23;11.80;;;19.40;99.90;;;;;;5005415;28;20383;-38
2022/07/22 06:10:54;;;;;;;18.65;13.35;;;19.60;99.90;;;;;;5003174;28;20022;-36
2022/07/22 06:13:20;;;;;;;18.25;12.88;;;19.70;99.90;;;;;;5002067;28;20030;-39
2022/07/22 06:15:46;;;;;;;18.58;13.35;;;19.80;99.90;;;;;;5003809;28;20136;-36
2022/07/22 06:18:12;;;;;;;17.38;12.88;;;20.00;99.90;;;;;;5004072;28;20075;-37
2022/07/22 06:20:37;;;;;;;19.33;13.93;;;20.10;99.90;;;;;;5005213;28;20456;-37
2022/07/22 06:23:03;;;;;;;16.80;12.85;;;20.00;99.90;;;;;;5005080;28;20044;-40
2022/07/22 06:25:29;;;;;;;17.65;13.27;;;20.10;99.90;;;;;;5004732;28;20101;-38
2022/07/22 06:27:55;;;;;;;18.40;13.38;;;20.30;99.90;;;;;;5002717;28;20079;-38
2022/07/22 06:30:21;;;;;;;18.25;13.05;;;20.40;99.90;;;;;;5003685;28;20483;-39
2022/07/22 06:32:46;;;;;;;17.13;13.68;;;20.60;99.90;;;;;;5004243;28;20034;-39
2022/07/22 06:35:12;;;;;;;18.98;13.05;;;20.90;99.90;;;;;;5004433;28;20495;-37
2022/07/22 06:37:38;;;;;;;17.95;13.00;;;21.00;99.90;;;;;;5003847;28;20045;-38
2022/07/22 06:40:04;;;;;;;18.02;12.80;;;21.10;99.90;;;;;;5005387;28;20061;-39
2022/07/22 06:42:30;;;;;;;17.42;12.88;;;21.10;99.90;;;;;;5004585;28;20030;-37
2022/07/22 06:44:56;;;;;;;18.10;13.32;;;21.30;99.90;;;;;;5004719;28;20030;-38
2022/07/22 06:47:22;;;;;;;20.20;13.23;;;21.40;99.90;;;;;;5007649;28;20153;-40
2022/07/22 06:49:48;;;;;;;18.30;12.98;;;21.50;99.90;;;;;;5003462;28;20029;-37
2022/07/22 06:52:13;;;;;;;16.92;12.95;;;21.60;99.90;;;;;;5004122;28;20034;-38
2022/07/22 06:54:39;;;;;;;17.40;13.23;;;21.80;99.90;;;;;;5003851;28;20030;-40
2022/07/22 06:57:04;;;;;;;19.70;13.48;;;22.10;99.90;;;;;;5004727;28;20038;-39
2022/07/22 06:59:30;;;;;;;17.08;13.85;;;22.10;99.90;;;;;;5004400;28;20022;-37
2022/07/22 07:01:56;;;;;;;16.33;12.77;;;22.20;99.90;;;;;;5002686;28;20049;-38
2022/07/22 07:04:21;;;;;;;16.15;12.63;;;22.40;99.90;;;;;;5001940;28;20130;-39
2022/07/22 07:06:47;;;;;;;17.10;12.18;;;22.50;99.90;;;;;;5001054;28;20073;-39
2022/07/22 07:09:13;;;;;;;15.95;12.23;;;22.70;99.90;;;;;;5002928;28;20620;-39
2022/07/22 07:11:38;;;;;;;19.67;12.63;;;22.80;99.90;;;;;;5000546;28;20108;-38
2022/07/22 07:14:04;;;;;;;18.25;13.02;;;23.00;99.90;;;;;;5004248;28;20030;-38
2022/07/22 07:16:30;;;;;;;19.58;13.18;;;22.90;99.90;;;;;;5006957;28;20686;-38
2022/07/22 07:18:56;;;;;;;21.58;12.93;;;22.90;99.90;;;;;;5002990;28;20030;-37
2022/07/22 07:21:21;;;;;;;17.95;11.88;;;23.00;99.90;;;;;;5004352;28;20034;-38
2022/07/22 07:23:47;;;;;;;18.75;13.23;;;23.10;99.90;;;;;;5004693;28;22175;-39
2022/07/22 07:26:13;;;;;;;17.50;12.10;;;23.20;99.30;;;;;;5003891;28;20033;-39
2022/07/22 07:28:39;;;;;;;19.20;12.40;;;23.20;99.90;;;;;;5003957;28;20034;-39
2022/07/22 07:31:04;;;;;;;19.15;11.65;;;23.40;98.80;;;;;;5003875;28;20543;-39
2022/07/22 07:33:31;;;;;;;16.35;13.15;;;23.50;98.50;;;;;;5002022;28;20046;-37
2022/07/22 07:35:56;;;;;;;13.95;9.60;;;23.60;98.60;;;;;;5003068;28;20105;-37
2022/07/22 07:38:22;;;;;;;12.95;10.15;;;23.70;93.50;;;;;;5002858;28;20030;-38
2022/07/22 07:40:48;;;;;;;12.85;9.57;;;23.90;91.20;;;;;;5002622;28;20037;-38
2022/07/22 07:43:14;;;;;;;11.27;9.63;;;24.00;91.40;;;;;;5002979;28;20396;-39
2022/07/22 07:45:40;;;;;;;13.30;9.77;;;24.10;94.10;;;;;;5003624;28;20033;-36
2022/07/22 07:48:06;;;;;;;15.27;10.35;;;24.30;92.00;;;;;;5002420;28;20034;-39
2022/07/22 07:50:31;;;;;;;14.70;9.68;;;24.30;91.60;;;;;;5001422;28;20048;-36
2022/07/22 07:52:57;;;;;;;12.68;10.00;;;24.20;87.80;;;;;;5001633;28;20076;-36
2022/07/22 07:55:23;;;;;;;13.85;10.18;;;24.30;91.40;;;;;;5002077;28;20032;-38
2022/07/22 07:57:49;;;;;;;13.60;10.75;;;24.40;90.20;;;;;;5002778;28;20037;-38
2022/07/22 08:00:17;;;;;;;12.77;10.05;;;24.50;90.50;;;;;;5004261;28;20029;-39
2022/07/22 08:02:42;;;;;;;;;;;24.60;91.00;;;;;;5003878;28;20034;-39
2022/07/22 08:05:09;;;;;;;12.75;10.15;;;24.80;89.40;;;;;;5003070;28;19920;-38
2022/07/22 08:07:36;;;;;;;14.88;10.88;;;24.90;89.50;;;;;;5002278;28;20522;-39
2022/07/22 08:10:02;;;;;;;15.38;11.23;;;24.90;84.70;;;;;;5006828;28;20398;-39
2022/07/22 08:12:28;;;;;;;14.80;11.32;;;24.90;85.70;;;;;;5001236;28;20590;-37
2022/07/22 08:14:53;;;;;;;13.80;11.23;;;24.90;90.00;;;;;;5001123;28;20029;-37
2022/07/22 08:17:19;;;;;;;14.38;11.63;;;25.10;86.80;;;;;;5002903;28;20040;-36
2022/07/22 08:19:45;;;;;;;15.55;11.25;;;25.10;84.90;;;;;;5003116;28;20038;-39
2022/07/22 08:22:10;;;;;;;13.55;10.43;;;25.10;85.10;;;;;;5001912;28;20032;-38
2022/07/22 08:24:36;;;;;;;12.10;9.88;;;25.10;85.40;;;;;;5001730;28;20053;-39
2022/07/22 08:27:02;;;;;;;11.32;9.50;;;25.40;85.80;;;;;;5001874;28;20026;-36
2022/07/22 08:29:27;;;;;;;10.77;9.57;;;25.60;82.70;;;;;;5001929;28;20033;-39
2022/07/22 08:31:53;;;;;;;13.98;9.70;;;25.80;81.60;;;;;;5000230;28;20042;-39
2022/07/22 08:34:19;;;;;;;13.98;9.48;;;25.90;78.30;;;;;;5001855;28;20030;-36
2022/07/22 08:36:45;;;;;;;11.13;9.18;;;26.00;75.40;;;;;;5001462;28;20026;-39
2022/07/22 08:39:10;;;;;;;12.73;10.13;;;26.10;79.60;;;;;;5001505;28;20058;-36
2022/07/22 08:41:39;;;;;;;10.88;9.63;;;26.10;76.40;;;;;;4999904;28;20942;-38
2022/07/22 08:44:06;;;;;;;11.65;8.93;;;26.20;74.20;;;;;;4999000;28;20026;-36
2022/07/22 08:46:33;;;;;;;12.57;9.18;;;26.30;73.30;;;;;;5004714;28;20036;-36
2022/07/22 08:49:01;;;;;;;10.18;8.73;;;26.30;74.60;;;;;;5008514;28;20109;-39
2022/07/22 08:51:27;;;;;;;11.25;8.88;;;26.40;71.80;;;;;;5010317;28;20095;-39
2022/07/22 08:53:53;;;;;;;12.27;9.30;;;26.80;69.90;;;;;;5007153;28;20053;-39
2022/07/22 08:56:19;;;;;;;9.82;8.82;;;26.90;67.70;;;;;;5007284;28;20024;-39
2022/07/22 08:58:45;;;;;;;10.57;8.73;;;26.90;65.10;;;;;;5000429;28;20037;-37
2022/07/22 09:01:15;;;;;;;9.60;8.60;;;27.00;67.40;;;;;;5000118;28;20049;-40
2022/07/22 09:03:55;;;;;;;9.57;8.57;;;27.00;64.10;;;;;;4999546;28;20030;-40
2022/07/22 09:06:24;;;;;;;10.00;7.93;;;27.00;63.30;;;;;;5002820;28;20038;-38
2022/07/22 09:09:01;;;;;;;9.75;8.15;;;27.00;63.90;;;;;;5002071;28;20402;-36
2022/07/22 09:11:28;;;;;;;9.40;8.30;;;27.20;60.80;;;;;;5001298;28;20040;-39
2022/07/22 09:13:54;;;;;;;;;;;27.50;59.40;;;;;;5002362;28;20487;-36
2022/07/22 09:16:43;;;;;;;10.50;9.02;;;27.40;60.80;;;;;;5003897;28;20375;-37
2022/07/22 09:19:10;;;;;;;11.10;8.90;;;27.40;61.70;;;;;;5001713;28;20479;-38
2022/07/22 09:21:38;;;;;;;12.20;8.87;;;27.50;58.90;;;;;;5001437;28;20129;-40
2022/07/22 09:24:05;;;;;;;14.02;9.05;;;27.50;62.20;;;;;;4999642;28;20119;-40
2022/07/22 09:26:36;;;;;;;12.68;9.52;;;27.70;57.30;;;;;;5002320;28;20018;-37
2022/07/22 09:29:04;;;;;;;9.63;8.63;;;27.60;58.60;;;;;;4998450;28;20038;-39
2022/07/22 09:31:37;;;;;;;9.40;8.10;;;27.70;59.90;;;;;;4999823;28;20073;-40
2022/07/22 09:34:04;;;;;;;11.35;8.85;;;27.90;57.90;;;;;;4999856;28;20418;-40
2022/07/22 09:36:30;;;;;;;11.20;9.18;;;27.90;57.60;;;;;;4999304;28;20030;-38
2022/07/22 09:38:56;;;;;;;10.30;8.90;;;28.00;57.40;;;;;;5000390;28;20951;-39
2022/07/22 09:41:22;;;;;;;10.32;9.18;;;28.20;58.70;;;;;;5001454;28;20026;-36
2022/07/22 09:43:49;;;;;;;10.90;8.88;;;28.40;57.50;;;;;;5001884;28;20037;-39
2022/07/22 09:46:15;;;;;;;10.60;9.57;;;28.30;57.90;;;;;;5016552;28;20030;-39
2022/07/22 09:48:42;;;;;;;11.10;9.40;;;28.30;58.00;;;;;;4999930;28;20088;-37
2022/07/22 09:51:09;;;;;;;14.43;9.52;;;28.40;55.70;;;;;;5001657;28;20038;-37
2022/07/22 09:53:35;;;;;;;9.57;8.35;;;28.20;56.40;;;;;;5001591;28;20058;-37
2022/07/22 09:56:03;;;;;;;12.23;9.10;;;28.30;57.70;;;;;;5000743;28;20403;-40
2022/07/22 09:58:29;;;;;;;10.05;8.32;;;28.50;55.30;;;;;;5000646;28;20037;-38
2022/07/22 10:00:59;;;;;;;9.50;8.00;;;28.70;55.60;;;;;;5000495;28;20443;-39
2022/07/22 10:03:36;;;;;;;8.88;7.95;;;28.90;52.90;;;;;;5001036;28;20026;-38
2022/07/22 10:06:04;;;;;;;8.60;7.78;;;29.00;51.10;;;;;;5001013;28;20034;-39
2022/07/22 10:08:31;;;;;;;8.95;7.32;;;28.90;48.80;;;;;;5000585;28;20050;-38
2022/07/22 10:11:03;;;;;;;8.50;7.20;;;28.90;49.40;;;;;;5001463;28;20037;-39
2022/07/22 10:13:30;;;;;;;8.80;7.68;;;29.10;49.40;;;;;;5001208;28;20681;-38
2022/07/22 10:15:57;;;;;;;8.63;7.32;;;29.10;47.30;;;;;;4998841;28;20398;-38
2022/07/22 10:18:25;;;;;;;10.55;7.30;;;29.20;49.00;;;;;;5002163;28;20054;-39
2022/07/22 10:21:01;;;;;;;9.05;7.35;;;29.20;47.30;;;;;;5000811;28;20038;-40
2022/07/22 10:23:26;;;;;;;11.63;8.25;;;29.40;48.00;;;;;;5000282;28;20122;-37
2022/07/22 10:25:58;;;;;;;9.52;8.50;;;29.30;48.00;;;;;;5000093;28;20031;-40
2022/07/22 10:28:27;;;;;;;9.05;7.88;;;29.30;48.70;;;;;;5000232;28;20148;-39
2022/07/22 10:31:07;;;;;;;9.48;8.25;;;29.30;50.30;;;;;;4999609;28;22050;-36
2022/07/22 10:33:36;;;;;;;9.85;8.50;;;29.80;48.30;;;;;;5000417;28;20517;-38
2022/07/22 10:36:03;;;;;;;10.35;7.60;;;30.10;47.30;;;;;;5001105;28;20033;-38
2022/07/22 10:38:31;;;;;;;8.20;7.33;;;29.80;44.50;;;;;;5001094;28;20058;-36
2022/07/22 10:41:04;;;;;;;8.32;6.90;;;29.80;45.90;;;;;;5000085;28;20084;-38
2022/07/22 10:43:31;;;;;;;8.10;7.30;;;30.20;45.30;;;;;;5003662;28;20026;-38
2022/07/22 10:45:58;;;;;;;8.68;7.10;;;30.30;42.90;;;;;;4999918;28;20033;-39
2022/07/22 10:48:32;;;;;;;7.30;6.60;;;30.20;42.90;;;;;;5002102;28;20061;-39
2022/07/22 10:51:07;;;;;;;6.95;6.25;;;29.80;41.70;;;;;;5003473;28;20021;-37
2022/07/22 10:53:43;;;;;;;7.57;6.72;;;29.40;44.20;;;;;;5004159;28;20460;-36
2022/07/22 10:56:38;;;;;;;7.60;6.88;;;29.50;44.40;;;;;;5004092;28;20072;-36
2022/07/22 10:59:11;;;;;;;8.93;6.93;;;29.30;45.00;;;;;;4996311;28;20052;-38
2022/07/22 11:01:39;;;;;;;7.57;6.88;;;29.40;43.60;;;;;;5004946;28;20686;-36
2022/07/22 11:04:11;;;;;;;7.15;6.45;;;29.30;44.00;;;;;;5004166;28;20498;-36
2022/07/22 11:06:36;;;;;;;8.30;7.45;;;29.50;43.60;;;;;;5003780;28;20459;-38
2022/07/22 11:09:05;;;;;;;8.45;7.05;;;29.60;43.80;;;;;;5003786;28;20034;-37
2022/07/22 11:11:53;;;;;;;8.68;6.85;;;29.70;43.50;;;;;;5004556;28;20570;-37
2022/07/22 11:14:33;;;;;;;10.18;7.07;;;28.80;42.90;;;;;;5004606;28;20510;-39
2022/07/22 11:17:04;;;;;;;7.38;6.60;;;28.90;43.20;;;;;;5002643;28;20056;-39
2022/07/22 11:19:37;;;;;;;7.00;6.30;;;28.90;44.80;;;;;;5003403;28;20030;-39
2022/07/22 11:22:08;;;;;;;7.57;6.80;;;29.10;46.00;;;;;;5010528;28;20034;-40
2022/07/22 11:24:35;;;;;;;9.98;6.90;;;29.30;45.10;;;;;;5005481;28;20038;-39
2022/07/22 11:27:02;;;;;;;9.55;7.30;;;29.30;44.10;;;;;;5006676;28;20049;-37
2022/07/22 11:29:30;;;;;;;10.68;7.80;;;28.90;44.40;;;;;;5003505;28;20026;-39
2022/07/22 11:31:57;;;;;;;8.48;7.15;;;29.10;46.60;;;;;;5003880;28;20045;-36
2022/07/22 11:34:23;;;;;;;8.35;6.65;;;29.10;44.00;;;;;;5003915;28;20034;-38
2022/07/22 11:36:50;;;;;;;8.50;6.93;;;29.10;44.00;;;;;;5002404;28;20025;-39
2022/07/22 11:39:21;;;;;;;8.05;7.25;;;28.90;45.40;;;;;;5008823;28;20026;-37
2022/07/22 11:41:46;;;;;;;9.95;7.68;;;29.00;45.00;;;;;;5003662;28;20029;-39
2022/07/22 11:44:16;;;;;;;9.02;7.28;;;29.10;45.30;;;;;;5004891;28;20028;-36
2022/07/22 11:46:42;;;;;;;8.23;6.93;;;29.30;44.50;;;;;;5007779;28;20037;-36
2022/07/22 11:49:09;;;;;;;8.32;7.38;;;29.10;45.70;;;;;;5011762;28;20026;-38
2022/07/22 11:51:37;;;;;;;8.70;7.68;;;29.40;44.50;;;;;;5010965;28;20033;-38
2022/07/22 11:54:03;;;;;;;;;;;29.20;42.40;;;;;;5011959;28;20038;-39
2022/07/22 11:56:29;;;;;;;7.93;7.03;;;29.20;43.20;;;;;;5007208;28;19951;-39
2022/07/22 11:58:55;;;;;;;7.45;6.85;;;29.30;42.80;;;;;;5005922;28;20709;-37
2022/07/22 12:01:28;;;;;;;7.05;6.30;;;29.30;43.40;;;;;;5001936;28;20123;-38
2022/07/22 12:03:57;;;;;;;6.90;6.28;;;29.30;42.70;;;;;;5004777;28;20042;-39
2022/07/22 12:06:24;;;;;;;7.05;6.07;;;29.30;42.80;;;;;;5004206;28;20069;-39
2022/07/22 12:09:03;;;;;;;9.00;6.70;;;29.50;41.30;;;;;;5003738;28;20083;-39
2022/07/22 12:11:30;;;;;;;8.50;6.43;;;29.60;43.40;;;;;;5003980;28;20054;-38
2022/07/22 12:13:56;;;;;;;7.30;6.60;;;29.70;42.80;;;;;;5002987;28;20867;-36
2022/07/22 12:16:27;;;;;;;6.88;6.10;;;29.70;43.80;;;;;;5006814;28;20483;-39
2022/07/22 12:18:59;;;;;;;7.07;6.38;;;29.50;40.50;;;;;;5002411;28;20522;-39
2022/07/22 12:21:27;;;;;;;6.53;5.93;;;29.30;39.00;;;;;;5002896;28;20478;-39
2022/07/22 12:24:11;;;;;;;6.25;5.65;;;29.20;40.30;;;;;;5002807;28;20034;-37
2022/07/22 12:26:46;;;;;;;8.02;6.18;;;29.40;39.20;;;;;;5000972;28;20073;-38
2022/07/22 12:29:34;;;;;;;6.75;6.00;;;29.60;38.80;;;;;;5003363;28;20188;-38
2022/07/22 12:32:05;;;;;;;6.70;6.00;;;29.60;38.50;;;;;;4995063;28;20038;-39
2022/07/22 12:34:42;;;;;;;7.45;5.68;;;29.70;39.30;;;;;;5002078;28;20029;-37
2022/07/22 12:37:12;;;;;;;6.97;6.30;;;29.70;39.50;;;;;;5002139;28;20044;-35
2022/07/22 12:39:38;;;;;;;7.97;7.18;;;29.60;39.10;;;;;;5005301;28;20029;-39